EWG9815 BKPR-LOWW
Flight info
| Callsign | EWG9815 |
|---|---|
| Flight time | 1h 15m |
| Altitude | 38000 |
| Route | KUKAD1D KUKAD DCT RETRA DCT GACMO DCT AGLIB DCT OBUTI OBUTI2W |
| Aircraft | A320/M-SDE3FGHIRWY/LB1 |
Departure
| Time | 2026-04-25 15:45 |
|---|---|
| Airport | Priština Adem Jashari International Airport (BKPR) |
Arrival
| Time | 2026-04-25 17:00 |
|---|---|
| Airport | Vienna International Airport (LOWW) |
| Time | Latitude | Longitude | Altitude | Speed | Heading |
|---|---|---|---|---|---|
| 2026-04-25 15:19 | 42.57543 | 21.03140 | 1787 ft | 0 kts | 265° |
| 2026-04-25 15:30 | 42.57543 | 21.03145 | 1787 ft | 3 kts | 264° |
| 2026-04-25 15:31 | 42.57548 | 21.03181 | 1787 ft | 4 kts | 248° |
| 2026-04-25 15:31 | 42.57562 | 21.03209 | 1784 ft | 4 kts | 208° |
| 2026-04-25 15:31 | 42.57575 | 21.03215 | 1787 ft | 0 kts | 175° |
| 2026-04-25 15:36 | 42.57528 | 21.03220 | 1787 ft | 6 kts | 175° |
| 2026-04-25 15:36 | 42.57492 | 21.03224 | 1787 ft | 5 kts | 175° |
| 2026-04-25 15:36 | 42.57465 | 21.03227 | 1787 ft | 3 kts | 175° |
| 2026-04-25 15:37 | 42.57446 | 21.03229 | 1787 ft | 2 kts | 175° |
| 2026-04-25 15:37 | 42.57435 | 21.03230 | 1785 ft | 1 kts | 175° |
| 2026-04-25 15:37 | 42.57428 | 21.03231 | 1787 ft | 3 kts | 175° |
| 2026-04-25 15:37 | 42.57367 | 21.03238 | 1787 ft | 12 kts | 174° |
| 2026-04-25 15:38 | 42.57323 | 21.03303 | 1787 ft | 9 kts | 102° |
| 2026-04-25 15:38 | 42.57277 | 21.03344 | 1787 ft | 8 kts | 174° |
| 2026-04-25 15:38 | 42.57215 | 21.03352 | 1786 ft | 13 kts | 175° |
| 2026-04-25 15:38 | 42.57085 | 21.03365 | 1785 ft | 22 kts | 177° |
| 2026-04-25 15:39 | 42.56936 | 21.03377 | 1785 ft | 23 kts | 175° |
| 2026-04-25 15:39 | 42.56783 | 21.03396 | 1781 ft | 17 kts | 175° |
| 2026-04-25 15:39 | 42.56670 | 21.03408 | 1782 ft | 16 kts | 175° |
| 2026-04-25 15:39 | 42.56566 | 21.03419 | 1783 ft | 14 kts | 176° |
| 2026-04-25 15:40 | 42.56474 | 21.03428 | 1782 ft | 13 kts | 176° |
| 2026-04-25 15:40 | 42.56445 | 21.03430 | 1783 ft | 12 kts | 176° |
| 2026-04-25 15:40 | 42.56332 | 21.03440 | 1786 ft | 12 kts | 176° |
| 2026-04-25 15:40 | 42.56269 | 21.03447 | 1789 ft | 16 kts | 175° |
| 2026-04-25 15:41 | 42.56158 | 21.03459 | 1792 ft | 15 kts | 175° |
| 2026-04-25 15:41 | 42.56063 | 21.03469 | 1794 ft | 12 kts | 175° |
| 2026-04-25 15:41 | 42.55975 | 21.03478 | 1796 ft | 7 kts | 175° |
| 2026-04-25 15:41 | 42.55945 | 21.03481 | 1797 ft | 5 kts | 175° |
| 2026-04-25 15:42 | 42.55905 | 21.03486 | 1796 ft | 9 kts | 175° |
| 2026-04-25 15:42 | 42.55817 | 21.03504 | 1797 ft | 13 kts | 146° |
| 2026-04-25 15:42 | 42.55802 | 21.03582 | 1797 ft | 7 kts | 88° |
| 2026-04-25 15:42 | 42.55806 | 21.03640 | 1799 ft | 5 kts | 85° |
| 2026-04-25 15:43 | 42.55808 | 21.03681 | 1799 ft | 4 kts | 84° |
| 2026-04-25 15:43 | 42.55817 | 21.03709 | 1797 ft | 5 kts | 58° |
| 2026-04-25 15:43 | 42.55871 | 21.03733 | 1795 ft | 0 kts | 355° |
| 2026-04-25 15:44 | 42.55944 | 21.03726 | 1798 ft | 40 kts | 355° |
| 2026-04-25 15:44 | 42.56480 | 21.03675 | 1784 ft | 111 kts | 356° |
| 2026-04-25 15:44 | 42.57446 | 21.03580 | 1792 ft | 165 kts | 356° |
| 2026-04-25 15:44 | 42.58630 | 21.03477 | 2333 ft | 167 kts | 355° |
| 2026-04-25 15:45 | 42.59775 | 21.03311 | 3067 ft | 165 kts | 355° |
| 2026-04-25 15:45 | 42.60920 | 21.03173 | 3696 ft | 168 kts | 356° |
| 2026-04-25 15:45 | 42.62148 | 21.03056 | 3987 ft | 190 kts | 357° |
| 2026-04-25 15:45 | 42.63072 | 21.02956 | 4187 ft | 205 kts | 352° |
| 2026-04-25 15:46 | 42.64778 | 21.01562 | 4548 ft | 238 kts | 311° |
| 2026-04-25 15:46 | 42.65787 | 20.99715 | 5222 ft | 247 kts | 304° |
| 2026-04-25 15:46 | 42.66718 | 20.97730 | 6093 ft | 249 kts | 302° |
| 2026-04-25 15:46 | 42.67647 | 20.95729 | 6971 ft | 251 kts | 303° |
| 2026-04-25 15:47 | 42.68277 | 20.94407 | 7559 ft | 252 kts | 303° |
| 2026-04-25 15:47 | 42.68811 | 20.92938 | 8121 ft | 256 kts | 287° |
| 2026-04-25 15:47 | 42.68893 | 20.90519 | 8940 ft | 262 kts | 259° |
| 2026-04-25 15:48 | 42.68082 | 20.88259 | 9427 ft | 284 kts | 228° |
| 2026-04-25 15:48 | 42.66524 | 20.86514 | 10099 ft | 294 kts | 218° |
| 2026-04-25 15:48 | 42.64870 | 20.84849 | 10854 ft | 297 kts | 218° |
| 2026-04-25 15:48 | 42.63194 | 20.83183 | 11589 ft | 301 kts | 218° |
| 2026-04-25 15:49 | 42.61495 | 20.81492 | 12344 ft | 305 kts | 218° |
| 2026-04-25 15:49 | 42.59778 | 20.79774 | 13081 ft | 309 kts | 218° |
| 2026-04-25 15:49 | 42.58040 | 20.78024 | 13814 ft | 312 kts | 218° |
| 2026-04-25 15:49 | 42.56284 | 20.76251 | 14475 ft | 316 kts | 218° |
| 2026-04-25 15:50 | 42.54512 | 20.74462 | 15134 ft | 319 kts | 218° |
| 2026-04-25 15:50 | 42.52724 | 20.72659 | 15785 ft | 322 kts | 218° |
| 2026-04-25 15:50 | 42.50939 | 20.70791 | 16423 ft | 325 kts | 224° |
| 2026-04-25 15:50 | 42.49438 | 20.68518 | 17084 ft | 325 kts | 237° |
| 2026-04-25 15:51 | 42.48315 | 20.65792 | 17295 ft | 340 kts | 250° |
| 2026-04-25 15:51 | 42.47760 | 20.63758 | 17391 ft | 353 kts | 252° |
| 2026-04-25 15:51 | 42.46615 | 20.59487 | 17572 ft | 376 kts | 251° |
| 2026-04-25 15:51 | 42.45702 | 20.56113 | 17998 ft | 384 kts | 251° |
| 2026-04-25 15:52 | 42.44770 | 20.52695 | 18535 ft | 389 kts | 251° |
| 2026-04-25 15:52 | 42.43827 | 20.49248 | 19058 ft | 392 kts | 251° |
| 2026-04-25 15:52 | 42.42872 | 20.45768 | 19578 ft | 396 kts | 251° |
| 2026-04-25 15:52 | 42.41908 | 20.42266 | 20096 ft | 399 kts | 251° |
| 2026-04-25 15:53 | 42.40932 | 20.38728 | 20635 ft | 402 kts | 251° |
| 2026-04-25 15:53 | 42.39949 | 20.35169 | 21172 ft | 405 kts | 251° |
| 2026-04-25 15:53 | 42.38968 | 20.31631 | 21681 ft | 408 kts | 251° |
| 2026-04-25 15:53 | 42.37966 | 20.28024 | 22192 ft | 411 kts | 251° |
| 2026-04-25 15:54 | 42.36954 | 20.24389 | 22681 ft | 413 kts | 251° |
| 2026-04-25 15:54 | 42.35954 | 20.20787 | 23155 ft | 416 kts | 251° |
| 2026-04-25 15:54 | 42.35073 | 20.17049 | 23584 ft | 418 kts | 259° |
| 2026-04-25 15:54 | 42.34510 | 20.13186 | 23931 ft | 420 kts | 261° |
| 2026-04-25 15:55 | 42.33960 | 20.09298 | 24312 ft | 422 kts | 261° |
| 2026-04-25 15:55 | 42.33404 | 20.05390 | 24672 ft | 425 kts | 261° |
| 2026-04-25 15:55 | 42.32839 | 20.01448 | 25024 ft | 427 kts | 261° |
| 2026-04-25 15:55 | 42.32270 | 19.97494 | 25360 ft | 430 kts | 261° |
| 2026-04-25 15:56 | 42.31696 | 19.93521 | 25699 ft | 432 kts | 261° |
| 2026-04-25 15:56 | 42.31114 | 19.89514 | 26039 ft | 435 kts | 261° |
| 2026-04-25 15:56 | 42.30536 | 19.85545 | 26372 ft | 437 kts | 261° |
| 2026-04-25 15:56 | 42.29946 | 19.81496 | 26697 ft | 440 kts | 260° |
| 2026-04-25 15:57 | 42.29352 | 19.77428 | 27018 ft | 442 kts | 261° |
| 2026-04-25 15:57 | 42.28754 | 19.73342 | 27328 ft | 444 kts | 260° |
| 2026-04-25 15:57 | 42.28153 | 19.69240 | 27614 ft | 447 kts | 260° |
| 2026-04-25 15:57 | 42.27544 | 19.65095 | 27907 ft | 450 kts | 260° |
| 2026-04-25 15:58 | 42.26933 | 19.60951 | 28199 ft | 452 kts | 260° |
| 2026-04-25 15:58 | 42.26316 | 19.56777 | 28478 ft | 454 kts | 260° |
| 2026-04-25 15:58 | 42.25694 | 19.52587 | 28752 ft | 456 kts | 260° |
| 2026-04-25 15:58 | 42.25068 | 19.48378 | 29016 ft | 458 kts | 260° |
| 2026-04-25 15:59 | 42.24622 | 19.44110 | 29266 ft | 458 kts | 269° |
| 2026-04-25 15:59 | 42.24817 | 19.39886 | 29521 ft | 457 kts | 281° |
| 2026-04-25 15:59 | 42.25677 | 19.35763 | 29763 ft | 457 kts | 294° |
| 2026-04-25 15:59 | 42.27164 | 19.31982 | 30006 ft | 456 kts | 306° |
| 2026-04-25 16:00 | 42.29196 | 19.28725 | 30288 ft | 453 kts | 317° |
| 2026-04-25 16:00 | 42.29989 | 19.27762 | 30385 ft | 452 kts | 322° |
| 2026-04-25 16:00 | 42.34329 | 19.23874 | 30865 ft | 450 kts | 329° |
| 2026-04-25 16:00 | 42.36989 | 19.21645 | 31166 ft | 448 kts | 329° |
| 2026-04-25 16:01 | 42.39642 | 19.19425 | 31481 ft | 447 kts | 329° |
| 2026-04-25 16:01 | 42.42285 | 19.17210 | 31805 ft | 445 kts | 329° |
| 2026-04-25 16:01 | 42.44916 | 19.14999 | 32134 ft | 444 kts | 329° |
| 2026-04-25 16:01 | 42.47534 | 19.12797 | 32445 ft | 443 kts | 329° |
| 2026-04-25 16:02 | 42.50151 | 19.10589 | 32740 ft | 442 kts | 328° |
| 2026-04-25 16:02 | 42.52754 | 19.08388 | 33029 ft | 441 kts | 328° |
| 2026-04-25 16:02 | 42.55360 | 19.06183 | 33344 ft | 440 kts | 329° |
| 2026-04-25 16:02 | 42.57903 | 19.04035 | 33661 ft | 439 kts | 329° |
| 2026-04-25 16:03 | 42.60494 | 19.01845 | 33962 ft | 438 kts | 329° |
| 2026-04-25 16:03 | 42.63077 | 18.99656 | 34233 ft | 437 kts | 328° |
| 2026-04-25 16:03 | 42.65654 | 18.97467 | 34528 ft | 435 kts | 328° |
| 2026-04-25 16:03 | 42.68195 | 18.95309 | 34791 ft | 434 kts | 328° |
| 2026-04-25 16:04 | 42.70765 | 18.93123 | 35040 ft | 434 kts | 328° |
| 2026-04-25 16:04 | 42.73324 | 18.90944 | 35284 ft | 433 kts | 328° |
| 2026-04-25 16:04 | 42.75873 | 18.88775 | 35513 ft | 432 kts | 328° |
| 2026-04-25 16:04 | 42.78424 | 18.86601 | 35743 ft | 432 kts | 328° |
| 2026-04-25 16:05 | 42.80938 | 18.84455 | 35949 ft | 431 kts | 328° |
| 2026-04-25 16:05 | 42.83479 | 18.82283 | 36151 ft | 431 kts | 328° |
| 2026-04-25 16:05 | 42.88555 | 18.77941 | 36580 ft | 429 kts | 328° |
| 2026-04-25 16:06 | 42.91083 | 18.75774 | 36767 ft | 429 kts | 328° |
| 2026-04-25 16:06 | 42.93615 | 18.73605 | 36954 ft | 429 kts | 328° |
| 2026-04-25 16:06 | 42.96142 | 18.71441 | 37142 ft | 428 kts | 328° |
| 2026-04-25 16:06 | 42.98669 | 18.69276 | 37337 ft | 428 kts | 328° |
| 2026-04-25 16:07 | 43.01156 | 18.67141 | 37513 ft | 427 kts | 328° |
| 2026-04-25 16:07 | 43.06188 | 18.62803 | 37861 ft | 427 kts | 327° |
| 2026-04-25 16:07 | 43.08693 | 18.60638 | 38011 ft | 427 kts | 327° |
| 2026-04-25 16:08 | 43.11206 | 18.58466 | 38018 ft | 426 kts | 327° |
| 2026-04-25 16:08 | 43.16339 | 18.54397 | 38021 ft | 426 kts | 333° |
| 2026-04-25 16:09 | 43.21651 | 18.50787 | 38022 ft | 426 kts | 333° |
| 2026-04-25 16:09 | 43.26966 | 18.47167 | 38022 ft | 426 kts | 333° |
| 2026-04-25 16:10 | 43.32279 | 18.43545 | 38024 ft | 426 kts | 333° |
| 2026-04-25 16:10 | 43.37562 | 18.39924 | 38021 ft | 427 kts | 333° |
| 2026-04-25 16:11 | 43.42890 | 18.36274 | 38024 ft | 427 kts | 333° |
| 2026-04-25 16:11 | 43.48223 | 18.32616 | 38029 ft | 427 kts | 333° |
| 2026-04-25 16:12 | 43.53547 | 18.28954 | 38035 ft | 427 kts | 332° |
| 2026-04-25 16:12 | 43.58837 | 18.25303 | 38041 ft | 427 kts | 332° |
| 2026-04-25 16:13 | 43.64156 | 18.21623 | 38029 ft | 427 kts | 332° |
| 2026-04-25 16:13 | 43.69474 | 18.17946 | 38023 ft | 427 kts | 332° |
| 2026-04-25 16:14 | 43.74754 | 18.14282 | 38030 ft | 427 kts | 332° |
| 2026-04-25 16:14 | 43.80061 | 18.10588 | 38028 ft | 426 kts | 332° |
| 2026-04-25 16:15 | 43.85361 | 18.06891 | 38024 ft | 426 kts | 332° |
| 2026-04-25 16:15 | 43.90658 | 18.03196 | 38029 ft | 426 kts | 332° |
| 2026-04-25 16:16 | 43.95946 | 17.99499 | 38048 ft | 425 kts | 332° |
| 2026-04-25 16:16 | 44.01208 | 17.95822 | 38036 ft | 425 kts | 332° |
| 2026-04-25 16:17 | 44.06484 | 17.92116 | 38035 ft | 425 kts | 331° |
| 2026-04-25 16:17 | 44.11756 | 17.88396 | 38035 ft | 425 kts | 331° |
| 2026-04-25 16:18 | 44.17030 | 17.84678 | 38043 ft | 424 kts | 331° |
| 2026-04-25 16:18 | 44.22297 | 17.80959 | 38039 ft | 424 kts | 331° |
| 2026-04-25 16:19 | 44.27526 | 17.77259 | 38033 ft | 423 kts | 331° |
| 2026-04-25 16:19 | 44.32778 | 17.73537 | 38033 ft | 423 kts | 331° |
| 2026-04-25 16:20 | 44.40636 | 17.67946 | 37982 ft | 426 kts | 330° |
| 2026-04-25 16:21 | 44.48501 | 17.62330 | 38015 ft | 421 kts | 330° |
| 2026-04-25 16:21 | 44.53719 | 17.58600 | 38008 ft | 421 kts | 330° |
| 2026-04-25 16:22 | 44.58934 | 17.54852 | 37997 ft | 422 kts | 330° |
| 2026-04-25 16:22 | 44.64163 | 17.51101 | 38005 ft | 421 kts | 330° |
| 2026-04-25 16:23 | 44.69384 | 17.47357 | 38002 ft | 421 kts | 330° |
| 2026-04-25 16:23 | 44.74598 | 17.43596 | 37998 ft | 421 kts | 330° |
| 2026-04-25 16:24 | 44.79781 | 17.39848 | 37989 ft | 421 kts | 330° |
| 2026-04-25 16:24 | 44.85003 | 17.36069 | 37994 ft | 421 kts | 329° |
| 2026-04-25 16:25 | 44.89215 | 17.33011 | 37993 ft | 421 kts | 329° |
| 2026-04-25 16:25 | 44.89989 | 17.32445 | 37993 ft | 421 kts | 329° |
| 2026-04-25 16:26 | 44.95188 | 17.28624 | 37994 ft | 421 kts | 329° |
| 2026-04-25 16:26 | 45.00398 | 17.24857 | 38010 ft | 421 kts | 329° |
| 2026-04-25 16:27 | 45.05575 | 17.21094 | 38008 ft | 421 kts | 329° |
| 2026-04-25 16:27 | 45.10782 | 17.17291 | 38024 ft | 420 kts | 329° |
| 2026-04-25 16:28 | 45.15983 | 17.13512 | 38011 ft | 420 kts | 330° |
| 2026-04-25 16:28 | 45.20330 | 17.10502 | 38012 ft | 420 kts | 330° |
| 2026-04-25 16:29 | 45.26432 | 17.06342 | 37997 ft | 420 kts | 330° |
| 2026-04-25 16:29 | 45.30818 | 17.03330 | 38010 ft | 420 kts | 330° |
| 2026-04-25 16:30 | 45.36062 | 16.99679 | 38006 ft | 419 kts | 330° |
| 2026-04-25 16:30 | 45.41300 | 16.96020 | 38000 ft | 418 kts | 330° |
| 2026-04-25 16:31 | 45.46530 | 16.92374 | 38003 ft | 418 kts | 330° |
| 2026-04-25 16:31 | 45.51734 | 16.88738 | 37996 ft | 418 kts | 329° |
| 2026-04-25 16:32 | 45.56955 | 16.85075 | 37996 ft | 418 kts | 329° |
| 2026-04-25 16:32 | 45.62187 | 16.81396 | 37997 ft | 418 kts | 329° |
| 2026-04-25 16:33 | 45.67387 | 16.77746 | 37995 ft | 418 kts | 329° |
| 2026-04-25 16:33 | 45.72614 | 16.74069 | 37995 ft | 418 kts | 329° |
| 2026-04-25 16:34 | 45.77826 | 16.70380 | 38008 ft | 418 kts | 329° |
| 2026-04-25 16:34 | 45.83053 | 16.66671 | 38001 ft | 418 kts | 329° |
| 2026-04-25 16:35 | 45.88269 | 16.62972 | 37998 ft | 418 kts | 329° |
| 2026-04-25 16:35 | 45.93456 | 16.59286 | 37994 ft | 418 kts | 329° |
| 2026-04-25 16:36 | 45.98673 | 16.55560 | 37791 ft | 418 kts | 329° |
| 2026-04-25 16:36 | 46.03877 | 16.51843 | 37243 ft | 418 kts | 329° |
| 2026-04-25 16:36 | 46.06490 | 16.49978 | 36974 ft | 418 kts | 329° |
| 2026-04-25 16:37 | 46.09097 | 16.48113 | 36707 ft | 420 kts | 329° |
| 2026-04-25 16:37 | 46.11718 | 16.46234 | 36448 ft | 421 kts | 329° |
| 2026-04-25 16:37 | 46.14317 | 16.44370 | 36190 ft | 422 kts | 329° |
| 2026-04-25 16:37 | 46.16948 | 16.42479 | 35932 ft | 423 kts | 329° |
| 2026-04-25 16:38 | 46.19560 | 16.40598 | 35682 ft | 424 kts | 329° |
| 2026-04-25 16:38 | 46.22200 | 16.38692 | 35467 ft | 424 kts | 328° |
| 2026-04-25 16:38 | 46.24843 | 16.36782 | 35206 ft | 425 kts | 328° |
| 2026-04-25 16:38 | 46.27494 | 16.34872 | 34955 ft | 426 kts | 329° |
| 2026-04-25 16:39 | 46.30155 | 16.32958 | 34713 ft | 426 kts | 329° |
| 2026-04-25 16:39 | 46.32782 | 16.31064 | 34471 ft | 427 kts | 328° |
| 2026-04-25 16:39 | 46.35449 | 16.29143 | 34231 ft | 428 kts | 330° |
| 2026-04-25 16:39 | 46.38244 | 16.27567 | 33985 ft | 434 kts | 338° |
| 2026-04-25 16:40 | 46.41221 | 16.26597 | 33721 ft | 441 kts | 346° |
| 2026-04-25 16:40 | 46.44256 | 16.25892 | 33459 ft | 441 kts | 345° |
| 2026-04-25 16:40 | 46.47293 | 16.25180 | 33188 ft | 442 kts | 345° |
| 2026-04-25 16:40 | 46.50335 | 16.24463 | 32920 ft | 442 kts | 345° |
| 2026-04-25 16:41 | 46.53339 | 16.23750 | 32655 ft | 443 kts | 345° |
| 2026-04-25 16:41 | 46.56385 | 16.23022 | 32393 ft | 444 kts | 345° |
| 2026-04-25 16:41 | 46.62495 | 16.21564 | 31875 ft | 445 kts | 346° |
| 2026-04-25 16:42 | 46.65557 | 16.20835 | 31643 ft | 446 kts | 346° |
| 2026-04-25 16:42 | 46.68621 | 16.20106 | 31390 ft | 446 kts | 346° |
| 2026-04-25 16:42 | 46.71703 | 16.19375 | 31139 ft | 447 kts | 346° |
| 2026-04-25 16:42 | 46.74778 | 16.18643 | 30899 ft | 448 kts | 346° |
| 2026-04-25 16:43 | 46.77861 | 16.17911 | 30645 ft | 449 kts | 346° |
| 2026-04-25 16:43 | 46.80944 | 16.17176 | 30361 ft | 449 kts | 346° |
| 2026-04-25 16:43 | 46.83974 | 16.16449 | 29277 ft | 446 kts | 346° |
| 2026-04-25 16:43 | 46.86977 | 16.15730 | 28628 ft | 427 kts | 346° |
| 2026-04-25 16:44 | 46.89853 | 16.15047 | 27927 ft | 412 kts | 346° |
| 2026-04-25 16:44 | 46.92668 | 16.14377 | 27260 ft | 408 kts | 346° |
| 2026-04-25 16:44 | 46.95475 | 16.13699 | 26604 ft | 410 kts | 346° |
| 2026-04-25 16:44 | 46.98276 | 16.13019 | 25960 ft | 404 kts | 346° |
| 2026-04-25 16:45 | 47.01054 | 16.12340 | 25339 ft | 404 kts | 346° |
| 2026-04-25 16:45 | 47.03809 | 16.11757 | 24544 ft | 409 kts | 353° |
| 2026-04-25 16:45 | 47.06691 | 16.12160 | 23499 ft | 415 kts | 12° |
| 2026-04-25 16:45 | 47.09367 | 16.13631 | 22339 ft | 415 kts | 19° |
| 2026-04-25 16:46 | 47.12023 | 16.15269 | 21190 ft | 412 kts | 19° |
| 2026-04-25 16:46 | 47.14656 | 16.16906 | 20093 ft | 409 kts | 20° |
| 2026-04-25 16:46 | 47.17268 | 16.18532 | 19037 ft | 405 kts | 20° |
| 2026-04-25 16:46 | 47.18982 | 16.19596 | 18373 ft | 402 kts | 20° |
| 2026-04-25 16:47 | 47.22431 | 16.21732 | 17287 ft | 401 kts | 20° |
| 2026-04-25 16:47 | 47.24997 | 16.23324 | 16774 ft | 397 kts | 20° |
| 2026-04-25 16:47 | 47.27526 | 16.24896 | 16234 ft | 393 kts | 20° |
| 2026-04-25 16:47 | 47.30039 | 16.26457 | 15698 ft | 390 kts | 19° |
| 2026-04-25 16:48 | 47.32502 | 16.27985 | 15160 ft | 387 kts | 19° |
| 2026-04-25 16:48 | 47.34977 | 16.29522 | 14619 ft | 384 kts | 19° |
| 2026-04-25 16:48 | 47.37434 | 16.31050 | 14064 ft | 381 kts | 19° |
| 2026-04-25 16:48 | 47.39870 | 16.32568 | 13486 ft | 378 kts | 19° |
| 2026-04-25 16:49 | 47.42280 | 16.34069 | 12931 ft | 373 kts | 19° |
| 2026-04-25 16:49 | 47.44659 | 16.35555 | 12366 ft | 369 kts | 19° |
| 2026-04-25 16:49 | 47.47014 | 16.37030 | 11820 ft | 366 kts | 19° |
| 2026-04-25 16:49 | 47.49360 | 16.38494 | 11356 ft | 362 kts | 19° |
| 2026-04-25 16:50 | 47.51590 | 16.39892 | 11207 ft | 333 kts | 19° |
| 2026-04-25 16:50 | 47.53672 | 16.41200 | 10877 ft | 321 kts | 19° |
| 2026-04-25 16:50 | 47.55690 | 16.42462 | 10574 ft | 317 kts | 19° |
| 2026-04-25 16:50 | 47.57722 | 16.43731 | 10398 ft | 317 kts | 19° |
| 2026-04-25 16:51 | 47.59756 | 16.45002 | 10257 ft | 316 kts | 19° |
| 2026-04-25 16:51 | 47.61781 | 16.46270 | 10120 ft | 316 kts | 19° |
| 2026-04-25 16:51 | 47.63804 | 16.47537 | 9970 ft | 316 kts | 19° |
| 2026-04-25 16:51 | 47.65152 | 16.48382 | 9509 ft | 320 kts | 20° |
| 2026-04-25 16:52 | 47.67876 | 16.50097 | 9021 ft | 310 kts | 19° |
| 2026-04-25 16:52 | 47.69844 | 16.51345 | 8279 ft | 305 kts | 19° |
| 2026-04-25 16:52 | 47.71761 | 16.52561 | 7544 ft | 302 kts | 19° |
| 2026-04-25 16:52 | 47.73693 | 16.53784 | 6917 ft | 301 kts | 19° |
| 2026-04-25 16:53 | 47.77553 | 16.56223 | 5839 ft | 298 kts | 19° |
| 2026-04-25 16:53 | 47.79415 | 16.57405 | 5551 ft | 282 kts | 19° |
| 2026-04-25 16:53 | 47.81203 | 16.58539 | 4962 ft | 275 kts | 19° |
| 2026-04-25 16:54 | 47.82915 | 16.59625 | 4595 ft | 259 kts | 18° |
| 2026-04-25 16:54 | 47.84542 | 16.60657 | 4427 ft | 249 kts | 18° |
| 2026-04-25 16:54 | 47.86093 | 16.61646 | 4309 ft | 236 kts | 18° |
| 2026-04-25 16:54 | 47.87565 | 16.62585 | 4210 ft | 224 kts | 19° |
| 2026-04-25 16:55 | 47.88986 | 16.63491 | 4120 ft | 221 kts | 18° |
| 2026-04-25 16:55 | 47.90400 | 16.64388 | 4027 ft | 220 kts | 18° |
| 2026-04-25 16:55 | 47.91779 | 16.65254 | 3919 ft | 208 kts | 15° |
| 2026-04-25 16:55 | 47.93156 | 16.65604 | 3762 ft | 197 kts | 353° |
| 2026-04-25 16:56 | 47.94461 | 16.65205 | 3504 ft | 188 kts | 341° |
| 2026-04-25 16:56 | 47.95702 | 16.64681 | 3349 ft | 179 kts | 341° |
| 2026-04-25 16:56 | 47.96829 | 16.64204 | 3438 ft | 164 kts | 340° |
| 2026-04-25 16:56 | 47.97928 | 16.63726 | 3136 ft | 165 kts | 339° |
| 2026-04-25 16:57 | 47.99030 | 16.63255 | 2695 ft | 165 kts | 339° |
| 2026-04-25 16:57 | 47.99401 | 16.63095 | 2530 ft | 164 kts | 339° |
| 2026-04-25 16:57 | 48.01072 | 16.62415 | 2195 ft | 138 kts | 338° |
| 2026-04-25 16:57 | 48.01983 | 16.62034 | 2014 ft | 134 kts | 338° |
| 2026-04-25 16:58 | 48.02877 | 16.61658 | 1841 ft | 133 kts | 337° |
| 2026-04-25 16:58 | 48.03768 | 16.61282 | 1643 ft | 132 kts | 339° |
| 2026-04-25 16:58 | 48.04652 | 16.60911 | 1481 ft | 132 kts | 339° |
| 2026-04-25 16:58 | 48.05537 | 16.60539 | 1303 ft | 132 kts | 337° |
| 2026-04-25 16:59 | 48.06418 | 16.60167 | 1126 ft | 132 kts | 338° |
| 2026-04-25 16:59 | 48.07310 | 16.59794 | 961 ft | 135 kts | 338° |
| 2026-04-25 16:59 | 48.08222 | 16.59407 | 768 ft | 136 kts | 339° |
| 2026-04-25 16:59 | 48.09119 | 16.59027 | 633 ft | 130 kts | 339° |
| 2026-04-25 17:00 | 48.09853 | 16.58684 | 620 ft | 97 kts | 346° |
| 2026-04-25 17:00 | 48.10356 | 16.58504 | 617 ft | 57 kts | 346° |
| 2026-04-25 17:00 | 48.10654 | 16.58378 | 618 ft | 38 kts | 346° |
| 2026-04-25 17:00 | 48.10739 | 16.58343 | 616 ft | 3 kts | 344° |
| 2026-04-25 17:01 | 48.10871 | 16.58285 | 614 ft | 28 kts | 343° |
| 2026-04-25 17:01 | 48.11022 | 16.58124 | 613 ft | 25 kts | 304° |
| 2026-04-25 17:01 | 48.11093 | 16.57910 | 612 ft | 21 kts | 294° |
| 2026-04-25 17:01 | 48.11146 | 16.57747 | 613 ft | 16 kts | 297° |
| 2026-04-25 17:02 | 48.11196 | 16.57596 | 612 ft | 17 kts | 296° |
| 2026-04-25 17:02 | 48.11248 | 16.57437 | 616 ft | 17 kts | 296° |
| 2026-04-25 17:02 | 48.11303 | 16.57270 | 616 ft | 18 kts | 296° |
| 2026-04-25 17:02 | 48.11359 | 16.57096 | 620 ft | 19 kts | 296° |
| 2026-04-25 17:03 | 48.11418 | 16.56915 | 615 ft | 20 kts | 296° |
| 2026-04-25 17:03 | 48.11478 | 16.56728 | 621 ft | 21 kts | 296° |
| 2026-04-25 17:03 | 48.11542 | 16.56532 | 613 ft | 21 kts | 296° |
| 2026-04-25 17:03 | 48.11607 | 16.56332 | 618 ft | 22 kts | 296° |
| 2026-04-25 17:04 | 48.11674 | 16.56127 | 622 ft | 22 kts | 296° |
| 2026-04-25 17:04 | 48.11742 | 16.55920 | 612 ft | 23 kts | 296° |
| 2026-04-25 17:04 | 48.11811 | 16.55706 | 617 ft | 23 kts | 296° |
| 2026-04-25 17:04 | 48.11880 | 16.55488 | 613 ft | 22 kts | 291° |
| 2026-04-25 17:05 | 48.11938 | 16.55281 | 620 ft | 20 kts | 296° |
| 2026-04-25 17:05 | 48.12061 | 16.55220 | 618 ft | 11 kts | 26° |
| 2026-04-25 17:05 | 48.12118 | 16.55233 | 626 ft | 7 kts | 310° |
| 2026-04-25 17:06 | 48.12129 | 16.55190 | 614 ft | 3 kts | 296° |
| 2026-04-25 17:06 | 48.12131 | 16.55184 | 613 ft | 0 kts | 296° |
| 2026-04-25 17:06 | 48.12132 | 16.55180 | 612 ft | 0 kts | 296° |